Time;durP1;ratioP1;P1;durP2;ratioP2;P2;SDS_P1;SDS_P2;PMS_P1;PMS_P2;Temp;Humidity;BMP_temperature;BMP_pressure;BME280_temperature;BME280_humidity;BME280_pressure;Samples;Min_cycle;Max_cycle;Signal;HPM_P1;HPM_P2
2022/06/28 00:01:00;;;;;;;22.45;20.10;;;20.10;99.90;;;-141.84;83.29;19673.59;5071305;28;20204;-60
2022/06/28 00:03:28;;;;;;;23.65;20.38;;;20.10;99.90;;;-141.84;84.31;19604.50;5071190;28;20204;-60
2022/06/28 00:05:57;;;;;;;22.95;20.50;;;20.00;99.90;;;-141.84;85.30;19610.59;5071052;28;20201;-61
2022/06/28 00:08:25;;;;;;;23.90;19.80;;;19.90;99.90;;;-141.84;85.45;19604.50;5071438;28;20201;-59
2022/06/28 00:10:53;;;;;;;24.52;21.92;;;19.90;99.90;;;-141.84;85.02;19602.47;5071189;28;20211;-59
2022/06/28 00:13:23;;;;;;;22.30;20.00;;;19.90;99.90;;;-141.84;83.52;19604.50;5071178;28;20643;-60
2022/06/28 00:16:05;;;;;;;23.15;20.65;;;19.90;99.90;;;-141.84;83.92;19608.56;5071307;28;20205;-60
2022/06/28 00:18:35;;;;;;;23.05;20.65;;;19.90;99.90;;;-141.84;85.01;19590.28;5071352;28;20286;-62
2022/06/28 00:21:06;;;;;;;22.65;19.95;;;19.90;99.90;;;-141.84;85.93;19580.13;5071377;28;20284;-60
2022/06/28 00:23:35;;;;;;;23.85;20.92;;;19.90;99.90;;;-141.84;84.69;19612.63;5071416;28;20239;-61
2022/06/28 00:26:03;;;;;;;22.80;20.50;;;19.90;99.90;;;-141.84;84.17;19602.47;5071260;28;20683;-59
2022/06/28 00:28:33;;;;;;;25.65;22.92;;;19.90;99.90;;;-141.84;82.46;19641.09;5071170;28;20208;-61
2022/06/28 00:31:02;;;;;;;23.67;21.20;;;19.70;99.90;;;-141.84;81.14;19643.13;5071394;28;20219;-60
2022/06/28 00:33:30;;;;;;;24.60;22.00;;;19.90;99.90;;;-141.84;82.25;19653.28;5070899;28;20268;-60
2022/06/28 00:35:59;;;;;;;23.50;21.02;;;19.90;99.90;;;-141.84;82.88;19596.38;5070985;28;20634;-61
2022/06/28 00:38:27;;;;;;;25.00;22.38;;;19.90;99.90;;;-141.84;82.14;19624.84;5070708;28;20694;-60
2022/06/28 00:40:55;;;;;;;24.50;21.67;;;19.90;99.90;;;-141.84;82.09;19632.97;5074402;28;20220;-61
2022/06/28 00:43:24;;;;;;;25.25;22.60;;;20.00;99.90;;;-141.84;81.06;19653.28;5074667;28;20299;-60
2022/06/28 00:45:54;;;;;;;24.38;20.73;;;20.10;99.90;;;-141.84;81.39;19596.38;5074822;28;20208;-59
2022/06/28 00:48:26;;;;;;;24.25;20.77;;;19.90;99.90;;;-141.84;81.47;19647.19;5074337;28;20302;-60
2022/06/28 00:50:54;;;;;;;23.58;21.13;;;19.90;99.90;;;-141.84;82.58;19626.88;5074822;28;20563;-60
2022/06/28 00:53:22;;;;;;;23.70;21.25;;;20.00;99.90;;;-141.84;81.93;19637.03;5074572;28;20196;-61
2022/06/28 00:55:51;;;;;;;24.92;22.15;;;20.00;99.90;;;-141.84;81.53;19665.47;5074633;28;20683;-60
2022/06/28 00:58:20;;;;;;;26.58;23.75;;;20.00;99.90;;;-141.84;81.85;19608.56;5074448;28;20431;-61
2022/06/28 01:00:50;;;;;;;27.67;24.77;;;19.90;99.90;;;-141.84;78.23;19708.16;5074548;28;20312;-60
2022/06/28 01:03:22;;;;;;;24.33;21.73;;;20.00;99.90;;;-141.84;79.10;19655.31;5074361;28;20220;-60
2022/06/28 01:05:53;;;;;;;23.90;21.40;;;20.00;99.90;;;-141.84;79.82;19653.28;5074503;28;20356;-61
2022/06/28 01:08:21;;;;;;;26.63;23.85;;;20.00;99.90;;;-141.84;78.88;19657.34;5074251;28;20187;-60
2022/06/28 01:10:49;;;;;;;25.15;22.40;;;20.00;99.90;;;-141.84;78.84;19691.91;5074635;28;20216;-60
2022/06/28 01:13:17;;;;;;;26.00;23.20;;;20.10;99.90;;;-141.84;79.69;19675.63;5074038;28;20236;-60
2022/06/28 01:15:46;;;;;;;22.98;20.70;;;20.00;99.90;;;-141.84;80.80;19637.03;5074252;28;20279;-60
2022/06/28 01:18:14;;;;;;;25.95;23.27;;;20.00;99.90;;;-141.84;79.72;19708.16;5073918;28;20207;-61
2022/06/28 01:20:45;;;;;;;23.05;20.73;;;20.00;99.90;;;-141.84;81.15;19641.09;5074031;28;20220;-59
2022/06/28 01:23:19;;;;;;;24.13;21.58;;;20.00;99.90;;;-141.84;82.09;19630.94;5074244;28;20614;-63
2022/06/28 01:25:47;;;;;;;25.92;23.20;;;20.00;99.90;;;-141.84;82.20;19606.53;5073734;28;20708;-60
2022/06/28 01:28:17;;;;;;;24.58;22.08;;;19.90;99.90;;;-141.84;81.70;19632.97;5073772;28;20743;-60
2022/06/28 01:30:45;;;;;;;25.35;22.70;;;19.80;99.90;;;-141.84;82.12;19590.28;5073903;28;20293;-60
2022/06/28 01:33:14;;;;;;;26.63;23.77;;;19.80;99.90;;;-141.84;82.60;19637.03;5073672;28;20205;-62
2022/06/28 01:35:42;;;;;;;26.63;23.67;;;19.80;99.90;;;-141.84;83.22;19608.56;5073968;28;20299;-61
2022/06/28 01:38:12;;;;;;;27.10;23.48;;;19.80;99.90;;;-141.84;82.44;19588.25;5074152;28;20205;-59
2022/06/28 01:40:45;;;;;;;28.02;25.02;;;19.80;99.90;;;-141.84;82.68;19608.56;5073525;28;20306;-60
2022/06/28 01:43:14;;;;;;;28.20;25.13;;;19.80;99.90;;;-141.84;84.28;19545.56;5073886;28;20185;-59
2022/06/28 01:45:44;;;;;;;29.98;26.42;;;19.80;99.90;;;-141.84;85.10;19543.53;5074010;28;20206;-61
2022/06/28 01:48:11;;;;;;;26.08;23.25;;;19.70;99.90;;;-141.84;85.64;19535.41;5073596;28;20204;-61
2022/06/28 01:50:39;;;;;;;29.40;24.92;;;19.70;99.90;;;-141.84;86.34;19531.34;5073348;28;20244;-60
2022/06/28 01:53:08;;;;;;;26.50;23.45;;;19.60;99.90;;;-141.84;87.05;19488.69;5073362;28;20197;-60
2022/06/28 01:55:36;;;;;;;30.85;27.45;;;19.60;99.90;;;-141.84;87.10;19492.75;5073797;28;20562;-59
2022/06/28 01:58:06;;;;;;;30.90;27.05;;;19.50;99.90;;;-141.84;85.44;19527.28;5073775;28;20307;-60
2022/06/28 02:00:34;;;;;;;32.10;27.05;;;19.40;99.90;;;-141.84;86.72;19496.81;5073189;28;20299;-60
2022/06/28 02:03:04;;;;;;;30.83;27.13;;;19.40;99.90;;;-141.84;88.27;19452.09;5073082;28;20247;-60
2022/06/28 02:05:34;;;;;;;30.45;27.05;;;19.30;99.90;;;-141.84;89.04;19441.94;5073435;28;20675;-60
2022/06/28 02:08:03;;;;;;;33.38;29.00;;;19.30;99.90;;;-141.84;88.88;19423.66;5073592;28;20312;-60
2022/06/28 02:10:31;;;;;;;33.42;28.55;;;19.30;99.90;;;-141.84;87.90;19466.31;5073271;28;20288;-61
2022/06/28 02:12:59;;;;;;;33.58;26.98;;;19.20;99.90;;;-141.84;89.20;19411.44;5072869;28;20244;-60
2022/06/28 02:15:29;;;;;;;34.53;29.02;;;19.20;99.90;;;-141.84;90.11;19364.72;5072978;28;20660;-60
2022/06/28 02:17:59;;;;;;;31.77;27.55;;;19.20;99.90;;;-141.84;89.71;19380.97;5072882;28;20204;-60
2022/06/28 02:20:28;;;;;;;34.03;29.42;;;19.10;99.90;;;-141.84;91.33;19305.78;5073026;28;20220;-59
2022/06/28 02:22:56;;;;;;;34.90;28.55;;;19.10;99.90;;;-141.84;92.04;19289.53;5073155;28;20205;-60
2022/06/28 02:25:25;;;;;;;35.15;29.25;;;19.10;99.90;;;-141.84;91.32;19289.53;5072763;28;20200;-61
2022/06/28 02:27:53;;;;;;;39.70;30.27;;;19.10;99.90;;;-141.84;91.07;19295.63;5073057;28;20211;-62
2022/06/28 02:30:24;;;;;;;37.13;30.20;;;19.10;99.90;;;-141.84;91.38;19275.31;5072488;28;20201;-60
2022/06/28 02:32:54;;;;;;;39.47;30.25;;;19.10;99.90;;;-141.84;92.89;19240.75;5072152;28;20189;-60
2022/06/28 02:40:54;;;;;;;34.97;28.02;;;19.10;99.90;;;-141.84;93.10;19177.75;5072769;28;20204;-60
2022/06/28 02:43:22;;;;;;;37.08;30.13;;;19.10;99.90;;;-141.84;92.83;19175.72;5072413;28;20201;-60
2022/06/28 02:45:50;;;;;;;36.30;29.25;;;19.10;99.90;;;-141.84;93.24;19183.84;5072169;28;20291;-60
2022/06/28 02:48:20;;;;;;;34.63;29.45;;;19.10;99.90;;;-141.84;91.08;19214.34;5072041;28;20264;-60
2022/06/28 02:50:48;;;;;;;32.92;27.70;;;19.20;99.90;;;-141.84;90.85;19244.81;5072298;28;20287;-62
2022/06/28 02:53:16;;;;;;;34.13;28.73;;;19.30;99.90;;;-141.84;90.85;19246.84;5071884;28;20291;-61
2022/06/28 02:55:44;;;;;;;34.80;29.15;;;19.30;99.90;;;-141.84;91.61;19230.59;5072316;28;20304;-60
2022/06/28 02:58:12;;;;;;;32.15;27.83;;;19.30;99.90;;;-141.84;92.12;19171.66;5071911;28;20200;-60
2022/06/28 03:00:40;;;;;;;35.85;28.45;;;19.30;99.90;;;-141.84;90.03;19257.00;5072022;28;20221;-60
2022/06/28 03:03:08;;;;;;;35.65;29.02;;;19.40;99.90;;;-141.84;89.92;19240.75;5071221;28;20231;-60
2022/06/28 03:05:38;;;;;;;32.97;26.98;;;19.40;99.90;;;-141.84;91.12;19185.88;5071662;28;20204;-60
2022/06/28 03:08:09;;;;;;;33.40;28.42;;;19.30;99.90;;;-141.84;91.93;19167.59;5072109;28;20268;-60
2022/06/28 03:10:37;;;;;;;31.33;27.00;;;19.30;99.90;;;-141.84;92.49;19151.34;5071836;28;20775;-61
2022/06/28 03:13:06;;;;;;;29.40;26.17;;;19.20;99.90;;;-141.84;91.92;19100.53;5071887;28;20212;-61
2022/06/28 03:15:34;;;;;;;31.02;26.50;;;19.30;99.90;;;-141.84;91.95;19135.09;5071571;28;20643;-60
2022/06/28 03:18:04;;;;;;;29.70;25.33;;;19.20;99.90;;;-141.84;91.84;19116.81;5071401;28;20686;-59
2022/06/28 03:20:32;;;;;;;31.13;25.85;;;19.20;99.90;;;-141.84;91.42;19090.38;5071823;28;20211;-61
2022/06/28 03:23:01;;;;;;;29.13;25.98;;;19.20;99.90;;;-141.84;91.94;19094.44;5072195;28;20207;-59
2022/06/28 03:25:30;;;;;;;30.52;25.17;;;19.20;99.90;;;-141.84;92.25;19021.31;5072071;28;20196;-61
2022/06/28 03:27:58;;;;;;;29.65;25.95;;;19.20;99.90;;;-141.84;92.31;19025.38;5071754;28;20200;-60
2022/06/28 03:30:26;;;;;;;28.73;25.02;;;19.30;99.90;;;-141.84;92.15;19070.06;5071873;28;20290;-61
2022/06/28 03:32:54;;;;;;;32.72;26.65;;;19.30;99.90;;;-141.84;90.69;19068.03;5071376;28;20289;-60
2022/06/28 03:35:23;;;;;;;29.42;25.48;;;19.30;99.90;;;-141.84;90.45;19088.34;5071671;28;20299;-59
2022/06/28 03:37:51;;;;;;;32.75;26.17;;;19.40;99.90;;;-141.84;91.14;19078.19;5071483;28;20522;-60
2022/06/28 03:40:20;;;;;;;28.88;25.70;;;19.40;99.90;;;-141.84;90.12;19108.69;5071643;28;20211;-60
2022/06/28 03:42:49;;;;;;;35.10;27.15;;;19.50;99.90;;;-141.84;90.10;19110.72;5071808;28;20312;-60
2022/06/28 03:45:17;;;;;;;28.83;24.73;;;19.50;99.90;;;-141.84;91.12;19043.66;5071634;28;20303;-59
2022/06/28 03:47:45;;;;;;;33.50;26.08;;;19.50;99.90;;;-141.84;90.08;19102.56;5071104;28;20232;-61
2022/06/28 03:50:14;;;;;;;33.67;28.15;;;19.50;99.90;;;-141.84;89.91;19116.81;5070998;28;20678;-60
2022/06/28 03:52:42;;;;;;;33.50;26.25;;;19.50;99.90;;;-141.84;89.96;19059.91;5071521;28;20197;-59
2022/06/28 03:55:11;;;;;;;26.33;23.40;;;19.50;99.90;;;-141.84;89.78;19074.13;5071527;28;20196;-60
2022/06/28 03:57:41;;;;;;;28.50;25.30;;;19.40;99.90;;;-141.84;89.74;19084.28;5071277;28;20667;-59
2022/06/28 04:00:11;;;;;;;28.65;24.73;;;19.50;99.90;;;-141.84;88.97;19102.56;5071040;28;20681;-60
2022/06/28 04:02:39;;;;;;;29.27;25.52;;;19.50;99.90;;;-141.84;89.30;19114.78;5071490;28;20224;-61
2022/06/28 04:05:08;;;;;;;27.80;23.95;;;19.50;99.90;;;-141.84;90.12;19061.94;5070916;28;20607;-60
2022/06/28 04:07:43;;;;;;;31.65;25.85;;;19.50;99.90;;;-141.84;90.28;19027.41;5071339;28;20222;-59
2022/06/28 04:10:12;;;;;;;29.17;25.83;;;19.50;99.90;;;-141.84;90.14;19041.63;5071184;28;20303;-60
2022/06/28 04:12:41;;;;;;;30.30;25.42;;;19.50;99.90;;;-141.84;88.80;19131.03;5070890;28;20205;-60
2022/06/28 04:15:11;;;;;;;28.88;25.75;;;19.60;99.90;;;-141.84;89.60;19114.78;5075343;28;20196;-59
2022/06/28 04:17:39;;;;;;;29.75;25.30;;;19.60;99.90;;;-141.84;86.67;19200.13;5074826;28;20240;-61
2022/06/28 04:20:08;;;;;;;30.20;25.35;;;19.70;99.90;;;-141.84;86.53;19212.31;5074713;28;20582;-60
2022/06/28 04:22:37;;;;;;;25.90;22.70;;;19.70;99.90;;;-141.84;84.39;19265.13;5075198;28;20244;-60
2022/06/28 04:25:07;;;;;;;22.67;20.02;;;19.60;99.90;;;-141.84;82.00;19346.44;5074912;28;20687;-61
2022/06/28 04:27:35;;;;;;;23.33;19.63;;;19.60;99.90;;;-141.84;82.33;19346.44;5075062;28;20200;-59
2022/06/28 04:30:06;;;;;;;23.10;20.58;;;19.50;99.90;;;-141.84;82.02;19326.09;5074881;28;20316;-60
2022/06/28 04:32:34;;;;;;;21.88;19.58;;;19.40;99.90;;;-141.84;83.34;19338.28;5074843;28;20181;-59
2022/06/28 04:35:03;;;;;;;21.08;18.95;;;19.30;99.90;;;-141.84;82.76;19293.59;5074436;28;20650;-59
2022/06/28 04:37:31;;;;;;;23.75;18.48;;;19.10;99.90;;;-141.84;83.16;19315.94;5074784;28;20201;-61
2022/06/28 04:39:59;;;;;;;15.98;14.38;;;19.10;99.90;;;-141.84;80.95;19362.69;5074782;28;20215;-60
2022/06/28 04:42:28;;;;;;;16.70;14.98;;;19.00;99.90;;;-141.84;81.18;19328.13;5074722;28;20228;-59
2022/06/28 04:44:56;;;;;;;15.70;13.65;;;19.00;99.90;;;-141.84;81.41;19348.47;5074786;28;20283;-59
2022/06/28 04:47:25;;;;;;;15.20;12.40;;;18.90;99.90;;;-141.84;81.02;19340.31;5074555;28;20287;-60
2022/06/28 04:49:54;;;;;;;14.13;12.57;;;18.90;99.90;;;-141.84;80.00;19362.69;5074283;28;20257;-59
2022/06/28 04:52:22;;;;;;;12.98;11.23;;;18.70;99.90;;;-141.84;81.24;19328.13;5074558;28;20284;-60
2022/06/28 04:54:50;;;;;;;11.75;10.55;;;18.70;99.90;;;-141.84;81.67;19317.97;5074432;28;20211;-61
2022/06/28 04:57:18;;;;;;;12.43;11.13;;;18.60;99.90;;;-141.84;82.37;19328.13;5074796;28;20208;-61
2022/06/28 04:59:46;;;;;;;12.15;10.90;;;18.60;99.90;;;-141.84;80.83;19328.13;5074411;28;20205;-60
2022/06/28 05:02:14;;;;;;;11.98;10.65;;;18.60;99.90;;;-141.84;80.85;19346.44;5074308;28;20221;-60
2022/06/28 05:04:43;;;;;;;10.93;9.82;;;18.60;99.90;;;-141.84;81.11;19305.78;5074179;28;20209;-59
2022/06/28 05:07:12;;;;;;;11.25;10.20;;;18.60;99.90;;;-141.84;81.22;19311.88;5074306;28;20312;-59
2022/06/28 05:09:41;;;;;;;10.52;9.25;;;18.60;99.90;;;-141.84;79.94;19383.00;5074203;28;20200;-60
2022/06/28 05:12:09;;;;;;;10.95;9.30;;;18.60;99.90;;;-141.84;79.68;19383.00;5073865;28;20303;-60
2022/06/28 05:14:38;;;;;;;9.50;8.50;;;18.70;99.90;;;-141.84;79.37;19409.41;5073691;28;20680;-60
2022/06/28 05:17:06;;;;;;;10.05;8.70;;;18.80;99.90;;;-141.84;78.47;19415.50;5074123;28;20260;-60
2022/06/28 05:19:35;;;;;;;9.68;8.48;;;18.70;99.90;;;-141.84;78.96;19387.06;5073727;28;20240;-59
2022/06/28 05:22:08;;;;;;;8.77;7.97;;;18.60;99.90;;;-141.84;78.31;19409.41;5074341;28;20271;-60
2022/06/28 05:24:36;;;;;;;10.77;9.00;;;18.60;99.90;;;-141.84;80.02;19364.72;5073460;28;20189;-59
2022/06/28 05:27:06;;;;;;;8.65;7.88;;;18.60;99.90;;;-141.84;79.74;19374.88;5073662;28;20299;-61
2022/06/28 05:29:34;;;;;;;11.00;9.50;;;18.50;99.90;;;-141.84;79.15;19403.31;5073779;28;20197;-60
2022/06/28 05:32:02;;;;;;;10.43;8.73;;;18.50;99.90;;;-141.84;81.00;19350.50;5073827;28;20203;-59
2022/06/28 05:34:31;;;;;;;9.20;8.38;;;18.50;99.90;;;-141.84;80.42;19338.28;5073593;28;20209;-61
2022/06/28 05:36:59;;;;;;;10.25;8.95;;;18.50;99.90;;;-141.84;80.80;19395.19;5073566;28;20201;-59
2022/06/28 05:39:28;;;;;;;9.27;7.97;;;18.60;99.90;;;-141.84;80.99;19338.28;5073679;28;20200;-60
2022/06/28 05:41:56;;;;;;;9.68;8.68;;;18.70;99.90;;;-141.84;78.62;19425.69;5073678;28;20343;-60
2022/06/28 05:44:25;;;;;;;11.15;9.15;;;18.70;99.90;;;-141.84;78.47;19435.84;5073679;28;20232;-59
2022/06/28 05:46:53;;;;;;;10.38;9.38;;;18.80;99.90;;;-141.84;77.38;19427.72;5073375;28;20287;-61
2022/06/28 05:49:21;;;;;;;10.32;8.98;;;18.90;99.90;;;-141.84;76.37;19504.94;5073002;28;20287;-60
2022/06/28 05:51:49;;;;;;;8.73;7.93;;;19.00;99.90;;;-141.84;78.16;19482.56;5073307;28;20215;-60
2022/06/28 05:54:17;;;;;;;10.73;8.85;;;19.00;99.90;;;-141.84;77.41;19468.34;5073466;28;20204;-60
2022/06/28 05:56:47;;;;;;;9.70;8.70;;;19.10;99.90;;;-141.84;77.53;19529.31;5073387;28;20304;-60
2022/06/28 05:59:15;;;;;;;11.73;9.82;;;19.20;99.90;;;-141.84;75.17;19563.88;5072968;28;20300;-60
2022/06/28 06:01:43;;;;;;;9.57;8.75;;;19.40;99.90;;;-141.84;75.21;19618.75;5073436;28;20204;-61
2022/06/28 06:04:11;;;;;;;11.52;9.38;;;19.70;99.90;;;-141.84;73.72;19602.47;5072755;28;20208;-60
2022/06/28 06:06:39;;;;;;;10.57;9.48;;;19.90;99.90;;;-141.84;71.89;19744.75;5073280;28;20212;-61
2022/06/28 06:09:07;;;;;;;11.43;10.23;;;20.20;99.90;;;-141.84;71.71;19726.44;5072680;28;20232;-60
2022/06/28 06:11:36;;;;;;;12.60;11.40;;;20.50;99.90;;;-141.84;67.38;19844.31;5073024;28;20205;-59
2022/06/28 06:14:06;;;;;;;13.30;11.98;;;20.90;99.90;;;-141.84;66.50;19984.56;5073188;28;20219;-60
2022/06/28 06:16:34;;;;;;;13.20;11.82;;;21.40;99.90;;;-141.84;62.15;20090.25;5073074;28;20189;-60
2022/06/28 06:19:03;;;;;;;13.20;11.90;;;21.80;99.90;;;-141.84;60.15;20179.69;5072569;28;20200;-60
2022/06/28 06:21:31;;;;;;;11.63;10.63;;;22.10;99.90;;;-141.84;60.87;20130.91;5072986;28;20200;-60
2022/06/28 06:23:59;;;;;;;13.75;12.45;;;22.10;99.90;;;-141.84;61.51;20092.28;5072903;28;20227;-60
2022/06/28 06:26:28;;;;;;;13.30;12.00;;;22.00;99.90;;;-141.84;62.39;20110.56;5072842;28;20204;-61
2022/06/28 06:28:57;;;;;;;13.68;12.23;;;;;;;-141.84;62.72;20067.88;5072824;28;20240;-60
2022/06/28 06:31:26;;;;;;;12.27;11.05;;;21.80;99.90;;;-141.84;62.80;20063.81;5072668;28;20290;-59
2022/06/28 06:33:55;;;;;;;13.65;12.35;;;21.80;99.90;;;-141.84;62.88;20055.69;5072032;28;20566;-61
2022/06/28 06:36:23;;;;;;;12.55;11.35;;;21.60;99.90;;;-141.84;64.03;20074.00;5072096;28;20287;-61
2022/06/28 06:38:52;;;;;;;13.25;12.05;;;;;;;-141.84;63.81;20015.03;5072051;28;20211;-60
2022/06/28 06:41:21;;;;;;;13.43;12.20;;;;;;;-141.84;62.60;20029.28;5072291;28;20684;-60
2022/06/28 06:43:49;;;;;;;12.77;11.38;;;21.30;99.90;;;-141.84;62.30;20047.56;5072543;28;20259;-61
2022/06/28 06:46:17;;;;;;;13.10;11.80;;;;;;;-141.84;61.07;20078.06;5072616;28;20197;-60
2022/06/28 06:48:52;;;;;;;11.25;9.98;;;;;;;-141.84;62.00;20071.97;5072293;28;20459;-60
2022/06/28 06:51:21;;;;;;;12.02;10.45;;;;;;;-141.84;61.67;20037.41;5072190;28;20306;-60
2022/06/28 06:53:49;;;;;;;12.65;11.55;;;21.20;99.90;;;-141.84;63.21;20037.41;5072430;28;20287;-60
2022/06/28 06:56:17;;;;;;;12.43;11.32;;;21.10;99.90;;;-141.84;63.67;19994.72;5072381;28;20231;-60
2022/06/28 06:58:45;;;;;;;10.82;9.82;;;21.10;99.90;;;-141.84;63.81;19980.50;5071988;28;20235;-59
2022/06/28 07:01:13;;;;;;;11.27;10.23;;;21.00;99.90;;;-141.84;65.23;19929.69;5072029;28;20658;-60
2022/06/28 07:04:03;;;;;;;9.40;8.50;;;20.90;99.90;;;-141.84;66.28;19937.81;5071502;28;20596;-60
2022/06/28 07:06:31;;;;;;;10.40;9.30;;;20.90;99.90;;;-141.84;64.03;20004.88;5072082;28;20205;-61
2022/06/28 07:08:59;;;;;;;11.10;10.10;;;20.80;99.90;;;-141.84;63.21;19982.53;5072175;28;20321;-60
2022/06/28 07:11:28;;;;;;;11.43;10.45;;;20.80;99.90;;;-141.84;63.21;20000.81;5071525;28;20342;-61
2022/06/28 07:13:56;;;;;;;10.27;9.38;;;20.70;99.90;;;-141.84;63.73;19964.25;5071922;28;20192;-60
2022/06/28 07:16:24;;;;;;;10.65;9.63;;;20.80;99.90;;;-141.84;63.51;19984.56;5071537;28;20242;-60
2022/06/28 07:18:57;;;;;;;10.30;9.40;;;21.00;99.90;;;-141.84;61.56;20025.22;5071518;28;20193;-59
2022/06/28 07:21:27;;;;;;;9.45;8.65;;;21.10;99.90;;;-141.84;60.86;20065.84;5071880;28;20197;-60
2022/06/28 07:23:56;;;;;;;9.20;8.40;;;21.30;99.90;;;-141.84;59.13;20179.69;5071698;28;20209;-59
2022/06/28 07:26:24;;;;;;;10.75;8.15;;;21.50;99.90;;;-141.84;58.25;20195.94;5072164;28;20200;-61
2022/06/28 07:28:52;;;;;;;8.70;7.90;;;21.70;99.90;;;-141.84;57.12;20260.97;5071806;28;20212;-59
2022/06/28 07:31:20;;;;;;;9.85;8.88;;;22.10;99.90;;;-141.84;55.43;20321.97;5071770;28;20312;-60
2022/06/28 07:33:49;;;;;;;11.32;9.25;;;22.30;99.90;;;-141.84;54.71;20354.47;5071068;28;20239;-62
2022/06/28 07:36:17;;;;;;;10.45;9.60;;;22.30;99.90;;;-141.84;56.17;20273.19;5071737;28;20523;-60
2022/06/28 07:38:46;;;;;;;9.32;8.43;;;22.20;99.90;;;-141.84;55.63;20319.94;5071693;28;20296;-59
2022/06/28 07:41:15;;;;;;;9.27;8.50;;;22.30;99.90;;;-141.84;56.23;20258.94;5071798;28;20200;-60
2022/06/28 07:43:43;;;;;;;9.10;8.20;;;22.20;99.90;;;-141.84;56.39;20236.59;5071733;28;20308;-59
2022/06/28 07:46:13;;;;;;;9.63;8.68;;;22.20;99.90;;;-141.84;57.41;20244.72;5071406;28;20235;-60
2022/06/28 07:48:41;;;;;;;10.27;9.38;;;22.10;99.90;;;-141.84;56.79;20242.69;5070535;28;20228;-60
2022/06/28 07:53:57;;;;;;;8.70;7.95;;;22.00;99.90;;;-141.84;54.36;20413.44;5070850;28;20223;-59
2022/06/28 07:56:25;;;;;;;8.05;7.35;;;22.30;99.90;;;-141.84;53.16;20423.59;5071441;28;20652;-60
2022/06/28 07:58:54;;;;;;;8.25;7.55;;;22.50;99.90;;;-141.84;54.00;20401.22;5071004;28;20682;-60
2022/06/28 08:01:22;;;;;;;8.45;7.65;;;22.60;99.90;;;-141.84;55.64;20293.50;5071023;28;20207;-59
2022/06/28 08:03:50;;;;;;;8.55;7.78;;;22.30;99.90;;;-141.84;56.00;20226.44;5054251;28;20217;-60
2022/06/28 08:06:18;;;;;;;8.93;8.13;;;22.00;99.90;;;-141.84;56.38;20246.75;5051649;28;20774;-60
2022/06/28 08:08:46;;;;;;;9.07;8.23;;;22.00;99.90;;;-141.84;54.72;20330.09;5063775;28;20192;-59
2022/06/28 08:11:16;;;;;;;7.93;7.13;;;22.20;99.90;;;-141.84;54.00;20370.75;5069952;28;20228;-60
2022/06/28 08:13:47;;;;;;;7.40;6.70;;;22.40;99.90;;;-141.84;55.12;20387.00;5050061;28;20231;-59
2022/06/28 08:16:16;;;;;;;7.63;6.90;;;22.60;99.90;;;-141.84;53.79;20380.91;5049945;28;20660;-61
2022/06/28 08:18:45;;;;;;;6.85;6.25;;;22.60;99.90;;;-141.84;54.37;20303.66;5049705;28;20236;-60
2022/06/28 08:21:20;;;;;;;6.90;6.40;;;22.40;99.90;;;-141.84;53.00;20334.16;5062739;28;20274;-60
2022/06/28 08:23:49;;;;;;;7.10;6.50;;;22.30;99.90;;;-141.84;52.80;20431.72;5070171;28;20221;-60
2022/06/28 08:26:18;;;;;;;7.80;7.10;;;22.40;99.90;;;-141.84;53.20;20374.81;5070501;28;20203;-60
2022/06/28 08:28:46;;;;;;;7.95;7.07;;;22.40;99.90;;;-141.84;53.38;20354.47;5069457;28;20239;-60
2022/06/28 08:31:14;;;;;;;6.60;6.00;;;22.30;99.90;;;-141.84;51.94;20417.50;5069842;28;20234;-60
2022/06/28 08:33:43;;;;;;;6.85;5.22;;;22.30;99.90;;;-141.84;52.87;20378.88;5069833;28;20231;-61
2022/06/28 08:36:11;;;;;;;6.53;5.95;;;22.40;99.90;;;-141.84;51.77;20431.72;5069674;28;20247;-60
2022/06/28 08:38:39;;;;;;;6.75;6.15;;;22.40;99.90;;;-141.84;52.73;20378.88;5054917;28;20201;-61
2022/06/28 08:41:08;;;;;;;6.30;5.72;;;22.30;99.90;;;-141.84;52.88;20378.88;5049565;28;20677;-60
2022/06/28 08:43:38;;;;;;;5.38;4.93;;;22.30;99.90;;;-141.84;52.63;20403.25;5049664;28;20222;-60
2022/06/28 08:46:07;;;;;;;5.47;4.97;;;22.40;99.90;;;-141.84;49.18;20525.22;5049722;28;20271;-61
2022/06/28 08:48:40;;;;;;;4.82;4.40;;;22.70;99.90;;;-141.84;48.99;20531.31;5049089;28;20306;-59
2022/06/28 08:51:10;;;;;;;4.82;4.43;;;22.90;99.90;;;-141.84;49.36;20541.50;5049683;28;20647;-61
2022/06/28 08:53:41;;;;;;;4.97;4.50;;;23.00;99.90;;;-141.84;49.48;20508.97;5050762;28;20190;-59
2022/06/28 08:56:10;;;;;;;4.82;4.20;;;23.00;99.90;;;-141.84;48.39;20557.75;5049809;28;20212;-60
2022/06/28 08:58:43;;;;;;;4.38;3.97;;;22.90;99.90;;;-141.84;47.22;20661.44;5056365;28;20232;-60
2022/06/28 09:01:14;;;;;;;4.63;4.05;;;23.10;99.90;;;-141.84;47.62;20618.72;5071193;28;20232;-60
2022/06/28 09:03:43;;;;;;;5.72;4.50;;;23.20;99.90;;;-141.84;48.04;20598.41;5072946;28;20236;-60
2022/06/28 09:06:11;;;;;;;4.20;3.90;;;23.10;99.90;;;-141.84;48.87;20533.34;5072667;28;20225;-61
2022/06/28 09:08:40;;;;;;;4.38;4.00;;;23.00;99.90;;;-141.84;48.49;20508.97;5073413;28;20295;-59
2022/06/28 09:11:08;;;;;;;3.80;3.50;;;22.80;99.90;;;-141.84;48.38;20513.03;5073177;28;20308;-59
2022/06/28 09:13:38;;;;;;;4.10;3.70;;;22.70;99.90;;;-141.84;46.38;20635.00;5072955;28;20221;-60
2022/06/28 09:16:08;;;;;;;3.75;3.28;;;22.90;99.90;;;-141.84;43.73;20675.66;5072781;28;20230;-60
2022/06/28 09:18:48;;;;;;;3.40;3.10;;;22.90;99.90;;;-141.84;45.38;20618.72;5070474;28;20622;-62
2022/06/28 09:21:19;;;;;;;3.63;3.28;;;22.90;99.90;;;-141.84;46.36;20578.09;5052795;28;20303;-61
2022/06/28 09:23:52;;;;;;;3.63;3.33;;;22.90;99.90;;;-141.84;46.57;20590.28;5052951;28;20291;-60
2022/06/28 09:26:22;;;;;;;9.10;3.60;;;22.80;99.90;;;-141.84;46.71;20637.03;5052852;28;20281;-60
2022/06/28 09:28:53;;;;;;;4.00;3.22;;;22.80;99.90;;;-141.84;46.80;20608.56;5060611;28;20220;-60
2022/06/28 09:31:25;;;;;;;4.18;3.88;;;23.00;99.90;;;-141.84;45.10;20657.34;5072658;28;20307;-59
2022/06/28 09:34:06;;;;;;;3.30;3.00;;;23.10;99.90;;;-141.84;44.95;20675.66;5072443;28;20277;-62
2022/06/28 09:36:37;;;;;;;3.67;3.30;;;23.30;99.90;;;-141.84;44.31;20653.28;5072505;28;20281;-62
2022/06/28 09:39:13;;;;;;;3.30;3.03;;;23.20;99.90;;;-141.84;44.81;20635.00;5072009;28;20234;-60
2022/06/28 09:41:46;;;;;;;4.35;3.53;;;23.00;99.90;;;-141.84;44.90;20708.19;5072868;28;20254;-60
2022/06/28 09:44:34;;;;;;;3.53;3.22;;;23.10;99.90;;;-141.84;44.90;20683.78;5072475;28;20252;-59
2022/06/28 09:50:10;;;;;;;3.67;3.38;;;23.20;99.90;;;-141.84;43.93;20708.19;5057334;28;20287;-60
2022/06/28 09:56:54;;;;;;;4.90;3.42;;;23.00;99.90;;;-141.84;43.00;20801.69;4994090;28;20267;-60
2022/06/28 09:59:25;;;;;;;3.40;3.10;;;23.30;99.90;;;-141.84;43.65;20781.38;4991116;28;20188;-60
2022/06/28 10:01:55;;;;;;;3.00;2.80;;;23.40;99.90;;;-141.84;42.93;20805.75;5007533;28;20599;-59
2022/06/28 10:04:24;;;;;;;3.13;2.90;;;23.40;99.90;;;-141.84;43.47;20761.03;5025552;28;20233;-59
2022/06/28 10:06:55;;;;;;;3.60;3.30;;;23.30;99.90;;;-141.84;43.38;20761.03;5012172;28;20254;-59
2022/06/28 10:09:24;;;;;;;3.45;3.20;;;23.20;99.90;;;-141.84;43.84;20720.38;5013357;28;20218;-59
2022/06/28 10:17:48;;;;;;;4.90;3.28;;;23.20;99.90;;;-141.84;43.04;20748.84;5073193;28;20258;-59
2022/06/28 10:20:23;;;;;;;3.30;3.00;;;23.20;99.90;;;-141.84;43.38;20769.16;5052885;28;20276;-59
2022/06/28 10:23:13;;;;;;;3.60;3.30;;;23.40;99.90;;;-141.84;42.48;20830.16;5052333;28;20223;-60
2022/06/28 10:25:43;;;;;;;3.90;3.10;;;23.60;99.90;;;-141.84;41.74;20864.72;5060255;28;20329;-60
2022/06/28 10:28:27;;;;;;;3.40;3.10;;;23.70;99.90;;;-141.84;40.65;20948.06;5072335;28;20248;-60
2022/06/28 10:31:33;;;;;;;4.13;3.28;;;24.00;99.90;;;-141.84;40.67;20950.09;5072212;28;20232;-60